Homestead National Monument, Nebraska
Current Conditions -  °F | °C
As of 6:35 AM on Sunday 21 Dec 2014 (Local Time) from KBIE Reporting Station
Overcast Overcast  
Wind Chill: 29°   Ceiling: 900
Heat Index: 39°   Visibility: 7mi
Dew Point: 37°   Wind: 17mph
Humidity: 93%   Direction: 200°SSW
Pressure: 29.91"   Gusts: NA
Location:  40.2674°N, 96.7699°W
Report Text: KBIE 211235Z AUTO 20015KT 7SM OVC009 04/03 A2991 RMK AO2 T00370026
Loading
Personal Weather Stations






























Interactive Weather Map New forecast layout! Learn more

10-Day Weather Forecast

Advertisements
Track Severe Weather on mobile